sensor_id;sensor_type;location;lat;lon;timestamp;temperature;humidity
14357;DHT22;7262;48.764;9.166;2023-10-08T00:02:09;13.30;99.90
14357;DHT22;7262;48.764;9.166;2023-10-08T00:04:39;13.40;99.90
14357;DHT22;7262;48.764;9.166;2023-10-08T00:07:06;13.40;99.90
14357;DHT22;7262;48.764;9.166;2023-10-08T00:09:34;13.30;99.90
14357;DHT22;7262;48.764;9.166;2023-10-08T00:12:02;13.40;99.90
14357;DHT22;7262;48.764;9.166;2023-10-08T00:14:30;13.40;99.90
14357;DHT22;7262;48.764;9.166;2023-10-08T00:17:06;13.50;99.90
14357;DHT22;7262;48.764;9.166;2023-10-08T00:19:36;13.40;99.90
14357;DHT22;7262;48.764;9.166;2023-10-08T00:22:04;13.50;99.90
14357;DHT22;7262;48.764;9.166;2023-10-08T00:24:33;13.40;99.90
14357;DHT22;7262;48.764;9.166;2023-10-08T00:27:06;13.60;99.90
14357;DHT22;7262;48.764;9.166;2023-10-08T00:29:33;13.50;99.90
14357;DHT22;7262;48.764;9.166;2023-10-08T00:32:04;13.50;99.90
14357;DHT22;7262;48.764;9.166;2023-10-08T00:34:38;13.60;99.90
14357;DHT22;7262;48.764;9.166;2023-10-08T00:37:07;13.60;99.90
14357;DHT22;7262;48.764;9.166;2023-10-08T00:39:36;13.60;99.90
14357;DHT22;7262;48.764;9.166;2023-10-08T00:42:04;13.60;99.90
14357;DHT22;7262;48.764;9.166;2023-10-08T00:44:34;13.60;99.90
14357;DHT22;7262;48.764;9.166;2023-10-08T00:47:08;13.60;99.90
14357;DHT22;7262;48.764;9.166;2023-10-08T00:49:37;13.50;99.90
14357;DHT22;7262;48.764;9.166;2023-10-08T00:52:21;13.40;99.90
14357;DHT22;7262;48.764;9.166;2023-10-08T00:54:52;13.50;99.90
14357;DHT22;7262;48.764;9.166;2023-10-08T00:57:33;13.50;99.90
14357;DHT22;7262;48.764;9.166;2023-10-08T01:00:01;13.60;99.90
14357;DHT22;7262;48.764;9.166;2023-10-08T01:02:30;13.60;99.90
14357;DHT22;7262;48.764;9.166;2023-10-08T01:05:12;13.60;99.90
14357;DHT22;7262;48.764;9.166;2023-10-08T01:07:41;13.80;99.90
14357;DHT22;7262;48.764;9.166;2023-10-08T01:10:10;13.70;99.90
14357;DHT22;7262;48.764;9.166;2023-10-08T01:12:39;13.70;99.90
14357;DHT22;7262;48.764;9.166;2023-10-08T01:15:19;13.70;99.90
14357;DHT22;7262;48.764;9.166;2023-10-08T01:17:54;13.70;99.90
14357;DHT22;7262;48.764;9.166;2023-10-08T01:20:26;13.80;99.90
14357;DHT22;7262;48.764;9.166;2023-10-08T01:23:02;13.70;99.90
14357;DHT22;7262;48.764;9.166;2023-10-08T01:25:36;13.70;99.90
14357;DHT22;7262;48.764;9.166;2023-10-08T01:28:03;13.70;99.90
14357;DHT22;7262;48.764;9.166;2023-10-08T01:30:34;13.60;99.90
14357;DHT22;7262;48.764;9.166;2023-10-08T01:33:07;13.60;99.90
14357;DHT22;7262;48.764;9.166;2023-10-08T01:35:37;13.50;99.90
14357;DHT22;7262;48.764;9.166;2023-10-08T01:38:06;13.50;99.90
14357;DHT22;7262;48.764;9.166;2023-10-08T01:40:41;13.40;99.90
14357;DHT22;7262;48.764;9.166;2023-10-08T01:43:08;13.40;99.90
14357;DHT22;7262;48.764;9.166;2023-10-08T01:45:36;13.50;99.90
14357;DHT22;7262;48.764;9.166;2023-10-08T01:48:06;13.40;99.90
14357;DHT22;7262;48.764;9.166;2023-10-08T01:50:35;13.30;99.90
14357;DHT22;7262;48.764;9.166;2023-10-08T01:53:02;13.40;99.90
14357;DHT22;7262;48.764;9.166;2023-10-08T01:55:33;13.40;99.90
14357;DHT22;7262;48.764;9.166;2023-10-08T01:58:11;13.40;99.90
14357;DHT22;7262;48.764;9.166;2023-10-08T02:00:41;13.40;99.90
14357;DHT22;7262;48.764;9.166;2023-10-08T02:03:12;13.30;99.90
14357;DHT22;7262;48.764;9.166;2023-10-08T02:05:41;13.40;99.90
14357;DHT22;7262;48.764;9.166;2023-10-08T02:08:08;13.40;99.90
14357;DHT22;7262;48.764;9.166;2023-10-08T02:10:38;13.40;99.90
14357;DHT22;7262;48.764;9.166;2023-10-08T02:13:06;13.30;99.90
14357;DHT22;7262;48.764;9.166;2023-10-08T02:15:34;13.20;99.90
14357;DHT22;7262;48.764;9.166;2023-10-08T02:18:01;13.20;99.90
14357;DHT22;7262;48.764;9.166;2023-10-08T02:20:28;13.10;99.90
14357;DHT22;7262;48.764;9.166;2023-10-08T02:22:55;13.10;99.90
14357;DHT22;7262;48.764;9.166;2023-10-08T02:25:23;13.00;99.90
14357;DHT22;7262;48.764;9.166;2023-10-08T02:27:52;13.00;99.90
14357;DHT22;7262;48.764;9.166;2023-10-08T02:30:19;12.90;99.90
14357;DHT22;7262;48.764;9.166;2023-10-08T02:32:46;12.80;99.90
14357;DHT22;7262;48.764;9.166;2023-10-08T02:35:12;12.80;99.90
14357;DHT22;7262;48.764;9.166;2023-10-08T02:37:39;12.80;99.90
14357;DHT22;7262;48.764;9.166;2023-10-08T02:40:06;12.70;99.90
14357;DHT22;7262;48.764;9.166;2023-10-08T02:42:42;12.70;99.90
14357;DHT22;7262;48.764;9.166;2023-10-08T02:45:11;12.50;99.90
14357;DHT22;7262;48.764;9.166;2023-10-08T02:47:40;12.60;99.90
14357;DHT22;7262;48.764;9.166;2023-10-08T02:50:07;12.50;99.90
14357;DHT22;7262;48.764;9.166;2023-10-08T02:52:42;12.40;99.90
14357;DHT22;7262;48.764;9.166;2023-10-08T02:55:10;12.40;99.90
14357;DHT22;7262;48.764;9.166;2023-10-08T02:57:49;12.30;99.90
14357;DHT22;7262;48.764;9.166;2023-10-08T03:00:17;12.30;99.90
14357;DHT22;7262;48.764;9.166;2023-10-08T03:02:45;12.30;99.90
14357;DHT22;7262;48.764;9.166;2023-10-08T03:05:13;12.30;99.90
14357;DHT22;7262;48.764;9.166;2023-10-08T03:07:42;12.30;99.90
14357;DHT22;7262;48.764;9.166;2023-10-08T03:10:10;12.30;99.90
14357;DHT22;7262;48.764;9.166;2023-10-08T03:12:44;12.20;99.90
14357;DHT22;7262;48.764;9.166;2023-10-08T03:15:12;12.20;99.90
14357;DHT22;7262;48.764;9.166;2023-10-08T03:17:41;12.20;99.90
14357;DHT22;7262;48.764;9.166;2023-10-08T03:20:14;12.20;99.90
14357;DHT22;7262;48.764;9.166;2023-10-08T03:22:55;12.10;99.90
14357;DHT22;7262;48.764;9.166;2023-10-08T03:25:23;12.10;99.90
14357;DHT22;7262;48.764;9.166;2023-10-08T03:27:51;12.10;99.90
14357;DHT22;7262;48.764;9.166;2023-10-08T03:30:19;12.10;99.90
14357;DHT22;7262;48.764;9.166;2023-10-08T03:32:48;12.10;99.90
14357;DHT22;7262;48.764;9.166;2023-10-08T03:35:20;12.10;99.90
14357;DHT22;7262;48.764;9.166;2023-10-08T03:37:53;12.10;99.90
14357;DHT22;7262;48.764;9.166;2023-10-08T03:40:40;12.00;99.90
14357;DHT22;7262;48.764;9.166;2023-10-08T03:43:10;12.10;99.90
14357;DHT22;7262;48.764;9.166;2023-10-08T03:45:48;12.10;99.90
14357;DHT22;7262;48.764;9.166;2023-10-08T03:48:20;12.00;99.90
14357;DHT22;7262;48.764;9.166;2023-10-08T03:50:47;12.00;99.90
14357;DHT22;7262;48.764;9.166;2023-10-08T03:53:22;12.00;99.90
14357;DHT22;7262;48.764;9.166;2023-10-08T03:55:49;12.00;99.90
14357;DHT22;7262;48.764;9.166;2023-10-08T03:58:17;12.00;99.90
14357;DHT22;7262;48.764;9.166;2023-10-08T04:00:54;11.90;99.90
14357;DHT22;7262;48.764;9.166;2023-10-08T04:03:35;12.00;99.90
14357;DHT22;7262;48.764;9.166;2023-10-08T04:06:23;12.00;99.90
14357;DHT22;7262;48.764;9.166;2023-10-08T04:08:54;11.90;99.90
14357;DHT22;7262;48.764;9.166;2023-10-08T04:11:30;11.90;99.90
14357;DHT22;7262;48.764;9.166;2023-10-08T04:14:00;11.90;99.90
14357;DHT22;7262;48.764;9.166;2023-10-08T04:16:27;11.90;99.90
14357;DHT22;7262;48.764;9.166;2023-10-08T04:18:56;11.80;99.90
14357;DHT22;7262;48.764;9.166;2023-10-08T04:21:28;11.80;99.90
14357;DHT22;7262;48.764;9.166;2023-10-08T04:23:55;11.90;99.90
14357;DHT22;7262;48.764;9.166;2023-10-08T04:26:23;11.80;99.90
14357;DHT22;7262;48.764;9.166;2023-10-08T04:28:50;11.80;99.90
14357;DHT22;7262;48.764;9.166;2023-10-08T04:31:20;11.70;99.90
14357;DHT22;7262;48.764;9.166;2023-10-08T04:33:50;11.70;99.90
14357;DHT22;7262;48.764;9.166;2023-10-08T04:36:19;11.70;99.90
14357;DHT22;7262;48.764;9.166;2023-10-08T04:38:46;11.70;99.90
14357;DHT22;7262;48.764;9.166;2023-10-08T04:41:14;11.70;99.90
14357;DHT22;7262;48.764;9.166;2023-10-08T04:43:44;11.80;99.90
14357;DHT22;7262;48.764;9.166;2023-10-08T04:46:11;11.90;99.90
14357;DHT22;7262;48.764;9.166;2023-10-08T04:48:50;11.90;99.90
14357;DHT22;7262;48.764;9.166;2023-10-08T04:51:18;12.00;99.90
14357;DHT22;7262;48.764;9.166;2023-10-08T04:53:49;12.00;99.90
14357;DHT22;7262;48.764;9.166;2023-10-08T04:56:16;12.00;99.90
14357;DHT22;7262;48.764;9.166;2023-10-08T04:58:43;12.00;99.90
14357;DHT22;7262;48.764;9.166;2023-10-08T05:01:12;12.10;99.90
14357;DHT22;7262;48.764;9.166;2023-10-08T05:03:46;12.10;99.90
14357;DHT22;7262;48.764;9.166;2023-10-08T05:06:35;12.10;99.90
14357;DHT22;7262;48.764;9.166;2023-10-08T05:09:27;12.10;99.90
14357;DHT22;7262;48.764;9.166;2023-10-08T05:12:11;12.10;99.90
14357;DHT22;7262;48.764;9.166;2023-10-08T05:14:54;11.90;99.90
14357;DHT22;7262;48.764;9.166;2023-10-08T05:17:34;12.00;99.90
14357;DHT22;7262;48.764;9.166;2023-10-08T05:20:11;11.80;99.90
14357;DHT22;7262;48.764;9.166;2023-10-08T05:22:45;11.80;99.90
14357;DHT22;7262;48.764;9.166;2023-10-08T05:25:24;11.80;99.90
14357;DHT22;7262;48.764;9.166;2023-10-08T05:28:00;11.80;99.90
14357;DHT22;7262;48.764;9.166;2023-10-08T05:30:35;11.80;99.90
14357;DHT22;7262;48.764;9.166;2023-10-08T05:33:18;11.80;99.90
14357;DHT22;7262;48.764;9.166;2023-10-08T05:35:53;11.80;99.90
14357;DHT22;7262;48.764;9.166;2023-10-08T05:38:35;11.80;99.90
14357;DHT22;7262;48.764;9.166;2023-10-08T05:41:15;11.80;99.90
14357;DHT22;7262;48.764;9.166;2023-10-08T05:43:53;11.80;99.90
14357;DHT22;7262;48.764;9.166;2023-10-08T05:46:38;11.80;99.90
14357;DHT22;7262;48.764;9.166;2023-10-08T05:49:32;11.80;99.90
14357;DHT22;7262;48.764;9.166;2023-10-08T05:52:20;11.90;99.90
14357;DHT22;7262;48.764;9.166;2023-10-08T05:55:06;11.90;99.90
14357;DHT22;7262;48.764;9.166;2023-10-08T05:57:43;12.00;99.90
14357;DHT22;7262;48.764;9.166;2023-10-08T06:00:17;12.00;99.90
14357;DHT22;7262;48.764;9.166;2023-10-08T06:03:13;12.10;99.90
14357;DHT22;7262;48.764;9.166;2023-10-08T06:06:02;12.00;99.90
14357;DHT22;7262;48.764;9.166;2023-10-08T06:08:50;12.10;99.90
14357;DHT22;7262;48.764;9.166;2023-10-08T06:11:49;12.00;99.90
14357;DHT22;7262;48.764;9.166;2023-10-08T06:14:35;12.00;99.90
14357;DHT22;7262;48.764;9.166;2023-10-08T06:17:33;12.10;99.90
14357;DHT22;7262;48.764;9.166;2023-10-08T06:20:10;12.10;99.90
14357;DHT22;7262;48.764;9.166;2023-10-08T06:22:46;12.20;99.90
14357;DHT22;7262;48.764;9.166;2023-10-08T06:25:12;12.30;99.90
14357;DHT22;7262;48.764;9.166;2023-10-08T06:27:49;12.20;99.90
14357;DHT22;7262;48.764;9.166;2023-10-08T06:32:56;12.30;99.90
14357;DHT22;7262;48.764;9.166;2023-10-08T06:35:23;12.40;99.90
14357;DHT22;7262;48.764;9.166;2023-10-08T06:37:54;12.30;99.90
14357;DHT22;7262;48.764;9.166;2023-10-08T06:40:25;12.40;99.90
14357;DHT22;7262;48.764;9.166;2023-10-08T06:43:12;12.40;99.90
14357;DHT22;7262;48.764;9.166;2023-10-08T06:45:42;12.50;99.90
14357;DHT22;7262;48.764;9.166;2023-10-08T06:48:26;12.60;99.90
14357;DHT22;7262;48.764;9.166;2023-10-08T06:51:07;12.60;99.90
14357;DHT22;7262;48.764;9.166;2023-10-08T06:53:40;12.60;99.90
14357;DHT22;7262;48.764;9.166;2023-10-08T06:56:15;12.60;99.90
14357;DHT22;7262;48.764;9.166;2023-10-08T06:58:48;12.70;99.90
14357;DHT22;7262;48.764;9.166;2023-10-08T07:04:06;13.00;99.90
14357;DHT22;7262;48.764;9.166;2023-10-08T07:06:37;13.20;99.90
14357;DHT22;7262;48.764;9.166;2023-10-08T07:11:49;13.40;99.90
14357;DHT22;7262;48.764;9.166;2023-10-08T07:14:20;13.60;99.90
14357;DHT22;7262;48.764;9.166;2023-10-08T07:16:48;13.80;99.90
14357;DHT22;7262;48.764;9.166;2023-10-08T07:19:21;14.00;99.90
14357;DHT22;7262;48.764;9.166;2023-10-08T07:22:02;14.30;99.90
14357;DHT22;7262;48.764;9.166;2023-10-08T07:27:20;14.80;99.90
14357;DHT22;7262;48.764;9.166;2023-10-08T07:29:55;15.10;99.90
14357;DHT22;7262;48.764;9.166;2023-10-08T07:32:29;15.70;99.90
14357;DHT22;7262;48.764;9.166;2023-10-08T07:34:57;16.20;99.90
14357;DHT22;7262;48.764;9.166;2023-10-08T07:37:40;16.70;99.90
14357;DHT22;7262;48.764;9.166;2023-10-08T07:40:08;17.10;99.90
14357;DHT22;7262;48.764;9.166;2023-10-08T07:42:37;17.20;99.90
14357;DHT22;7262;48.764;9.166;2023-10-08T07:45:04;17.20;99.90
14357;DHT22;7262;48.764;9.166;2023-10-08T08:34:44;19.00;99.90
14357;DHT22;7262;48.764;9.166;2023-10-08T08:37:11;19.00;99.90
14357;DHT22;7262;48.764;9.166;2023-10-08T08:39:38;19.70;99.90
14357;DHT22;7262;48.764;9.166;2023-10-08T08:42:05;20.60;99.90
14357;DHT22;7262;48.764;9.166;2023-10-08T08:44:34;21.40;99.90
14357;DHT22;7262;48.764;9.166;2023-10-08T08:47:05;21.70;99.90
14357;DHT22;7262;48.764;9.166;2023-10-08T08:49:33;21.60;99.90
14357;DHT22;7262;48.764;9.166;2023-10-08T08:52:05;22.50;99.90
14357;DHT22;7262;48.764;9.166;2023-10-08T08:54:32;23.50;99.90
14357;DHT22;7262;48.764;9.166;2023-10-08T08:56:59;24.40;99.90
14357;DHT22;7262;48.764;9.166;2023-10-08T08:59:29;24.60;99.90
14357;DHT22;7262;48.764;9.166;2023-10-08T09:02:00;25.30;99.90
14357;DHT22;7262;48.764;9.166;2023-10-08T09:04:29;25.20;99.90
14357;DHT22;7262;48.764;9.166;2023-10-08T09:06:58;24.10;99.90
14357;DHT22;7262;48.764;9.166;2023-10-08T09:09:35;23.40;99.90
14357;DHT22;7262;48.764;9.166;2023-10-08T09:12:05;23.00;99.90
14357;DHT22;7262;48.764;9.166;2023-10-08T09:14:36;23.60;99.90
14357;DHT22;7262;48.764;9.166;2023-10-08T09:17:05;24.80;99.90
14357;DHT22;7262;48.764;9.166;2023-10-08T09:19:35;25.90;99.90
14357;DHT22;7262;48.764;9.166;2023-10-08T09:22:03;26.60;99.90
14357;DHT22;7262;48.764;9.166;2023-10-08T09:24:30;26.70;99.90
14357;DHT22;7262;48.764;9.166;2023-10-08T09:27:00;27.40;99.90
14357;DHT22;7262;48.764;9.166;2023-10-08T09:29:28;28.00;99.90
14357;DHT22;7262;48.764;9.166;2023-10-08T09:31:55;28.10;99.90
14357;DHT22;7262;48.764;9.166;2023-10-08T09:34:25;27.70;99.90
14357;DHT22;7262;48.764;9.166;2023-10-08T09:36:53;26.90;99.90
14357;DHT22;7262;48.764;9.166;2023-10-08T09:39:20;26.50;99.90
14357;DHT22;7262;48.764;9.166;2023-10-08T09:41:49;26.10;99.90
14357;DHT22;7262;48.764;9.166;2023-10-08T09:44:19;25.50;99.90
14357;DHT22;7262;48.764;9.166;2023-10-08T09:46:48;25.30;99.90
14357;DHT22;7262;48.764;9.166;2023-10-08T09:49:16;25.00;99.90
14357;DHT22;7262;48.764;9.166;2023-10-08T09:51:45;25.00;99.90
14357;DHT22;7262;48.764;9.166;2023-10-08T09:54:15;25.10;99.90
14357;DHT22;7262;48.764;9.166;2023-10-08T09:56:47;25.10;99.90
14357;DHT22;7262;48.764;9.166;2023-10-08T09:59:14;24.70;99.90
14357;DHT22;7262;48.764;9.166;2023-10-08T10:01:43;24.50;99.90
14357;DHT22;7262;48.764;9.166;2023-10-08T10:04:11;24.60;99.90
14357;DHT22;7262;48.764;9.166;2023-10-08T10:06:38;24.70;99.90
14357;DHT22;7262;48.764;9.166;2023-10-08T10:09:12;24.70;99.90
14357;DHT22;7262;48.764;9.166;2023-10-08T10:11:47;24.70;99.90
14357;DHT22;7262;48.764;9.166;2023-10-08T10:14:16;24.40;99.90
14357;DHT22;7262;48.764;9.166;2023-10-08T10:16:45;24.60;99.90
14357;DHT22;7262;48.764;9.166;2023-10-08T10:19:17;24.70;99.90
14357;DHT22;7262;48.764;9.166;2023-10-08T10:21:45;24.80;99.90
14357;DHT22;7262;48.764;9.166;2023-10-08T10:24:21;24.80;99.90
14357;DHT22;7262;48.764;9.166;2023-10-08T10:26:48;24.70;99.90
14357;DHT22;7262;48.764;9.166;2023-10-08T10:29:22;24.60;99.90
14357;DHT22;7262;48.764;9.166;2023-10-08T10:31:53;24.40;99.90
14357;DHT22;7262;48.764;9.166;2023-10-08T10:34:22;24.30;99.90
14357;DHT22;7262;48.764;9.166;2023-10-08T10:36:52;24.40;99.90
14357;DHT22;7262;48.764;9.166;2023-10-08T10:39:24;24.60;99.90
14357;DHT22;7262;48.764;9.166;2023-10-08T10:41:56;24.70;99.90
14357;DHT22;7262;48.764;9.166;2023-10-08T10:44:26;24.70;99.90
14357;DHT22;7262;48.764;9.166;2023-10-08T10:46:57;25.00;99.90
14357;DHT22;7262;48.764;9.166;2023-10-08T10:49:37;25.50;99.90
14357;DHT22;7262;48.764;9.166;2023-10-08T10:52:14;25.80;99.90
14357;DHT22;7262;48.764;9.166;2023-10-08T10:54:51;25.80;99.90
14357;DHT22;7262;48.764;9.166;2023-10-08T11:05:31;25.10;99.90
14357;DHT22;7262;48.764;9.166;2023-10-08T11:08:04;24.90;99.90
14357;DHT22;7262;48.764;9.166;2023-10-08T11:13:07;24.80;99.90
14357;DHT22;7262;48.764;9.166;2023-10-08T11:23:35;24.80;99.90
14357;DHT22;7262;48.764;9.166;2023-10-08T12:05:01;32.00;94.60
14357;DHT22;7262;48.764;9.166;2023-10-08T12:07:29;32.80;93.80
14357;DHT22;7262;48.764;9.166;2023-10-08T12:09:57;33.60;93.50
14357;DHT22;7262;48.764;9.166;2023-10-08T12:12:26;34.30;92.10
14357;DHT22;7262;48.764;9.166;2023-10-08T12:14:54;34.90;90.80
14357;DHT22;7262;48.764;9.166;2023-10-08T12:17:21;34.00;90.10
14357;DHT22;7262;48.764;9.166;2023-10-08T12:19:55;34.70;90.00
14357;DHT22;7262;48.764;9.166;2023-10-08T12:22:26;35.70;88.10
14357;DHT22;7262;48.764;9.166;2023-10-08T12:24:54;35.30;86.40
14357;DHT22;7262;48.764;9.166;2023-10-08T12:27:21;35.40;84.90
14357;DHT22;7262;48.764;9.166;2023-10-08T12:29:48;34.50;85.90
14357;DHT22;7262;48.764;9.166;2023-10-08T12:32:18;34.20;85.20
14357;DHT22;7262;48.764;9.166;2023-10-08T12:34:53;34.00;87.30
14357;DHT22;7262;48.764;9.166;2023-10-08T12:37:21;33.90;84.90
14357;DHT22;7262;48.764;9.166;2023-10-08T12:39:49;33.30;85.80
14357;DHT22;7262;48.764;9.166;2023-10-08T12:42:25;33.00;87.00
14357;DHT22;7262;48.764;9.166;2023-10-08T12:44:53;33.60;84.50
14357;DHT22;7262;48.764;9.166;2023-10-08T12:47:22;34.10;82.50
14357;DHT22;7262;48.764;9.166;2023-10-08T12:49:54;34.20;81.20
14357;DHT22;7262;48.764;9.166;2023-10-08T12:52:23;34.00;80.90
14357;DHT22;7262;48.764;9.166;2023-10-08T12:55:02;34.00;80.50
14357;DHT22;7262;48.764;9.166;2023-10-08T12:57:32;34.20;80.80
14357;DHT22;7262;48.764;9.166;2023-10-08T13:00:00;34.00;80.50
14357;DHT22;7262;48.764;9.166;2023-10-08T13:02:29;32.80;82.50
14357;DHT22;7262;48.764;9.166;2023-10-08T13:04:55;33.60;78.40
14357;DHT22;7262;48.764;9.166;2023-10-08T13:07:24;34.60;77.30
14357;DHT22;7262;48.764;9.166;2023-10-08T13:09:52;34.20;75.90
14357;DHT22;7262;48.764;9.166;2023-10-08T13:12:20;34.30;75.70
14357;DHT22;7262;48.764;9.166;2023-10-08T13:14:47;34.40;76.00
14357;DHT22;7262;48.764;9.166;2023-10-08T13:19:51;34.80;73.50
14357;DHT22;7262;48.764;9.166;2023-10-08T13:22:19;33.70;74.70
14357;DHT22;7262;48.764;9.166;2023-10-08T13:24:46;34.40;72.80
14357;DHT22;7262;48.764;9.166;2023-10-08T13:27:14;33.70;72.60
14357;DHT22;7262;48.764;9.166;2023-10-08T13:29:43;33.80;73.30
14357;DHT22;7262;48.764;9.166;2023-10-08T13:32:10;33.70;72.20
14357;DHT22;7262;48.764;9.166;2023-10-08T13:34:42;33.60;72.60
14357;DHT22;7262;48.764;9.166;2023-10-08T13:37:09;33.00;73.90
14357;DHT22;7262;48.764;9.166;2023-10-08T13:39:37;33.50;72.30
14357;DHT22;7262;48.764;9.166;2023-10-08T13:42:06;33.70;72.20
14357;DHT22;7262;48.764;9.166;2023-10-08T13:44:33;33.60;73.00
14357;DHT22;7262;48.764;9.166;2023-10-08T13:47:02;33.20;74.80
14357;DHT22;7262;48.764;9.166;2023-10-08T13:49:31;32.10;76.00
14357;DHT22;7262;48.764;9.166;2023-10-08T13:51:58;32.00;76.20
14357;DHT22;7262;48.764;9.166;2023-10-08T13:54:25;32.20;75.70
14357;DHT22;7262;48.764;9.166;2023-10-08T13:56:54;31.30;76.80
14357;DHT22;7262;48.764;9.166;2023-10-08T13:59:21;30.20;79.00
14357;DHT22;7262;48.764;9.166;2023-10-08T14:01:50;30.80;79.40
14357;DHT22;7262;48.764;9.166;2023-10-08T14:04:26;30.60;78.10
14357;DHT22;7262;48.764;9.166;2023-10-08T14:36:54;31.80;77.10
14357;DHT22;7262;48.764;9.166;2023-10-08T14:39:38;30.70;78.60
14357;DHT22;7262;48.764;9.166;2023-10-08T14:42:23;30.40;78.30
14357;DHT22;7262;48.764;9.166;2023-10-08T14:45:10;29.30;80.80
14357;DHT22;7262;48.764;9.166;2023-10-08T14:47:39;28.80;81.70
14357;DHT22;7262;48.764;9.166;2023-10-08T14:50:10;28.40;82.60
14357;DHT22;7262;48.764;9.166;2023-10-08T14:52:43;28.20;83.50
14357;DHT22;7262;48.764;9.166;2023-10-08T14:55:10;27.90;84.40
14357;DHT22;7262;48.764;9.166;2023-10-08T14:57:39;28.10;84.90
14357;DHT22;7262;48.764;9.166;2023-10-08T15:00:07;28.20;84.70
14357;DHT22;7262;48.764;9.166;2023-10-08T15:02:36;28.80;83.50
14357;DHT22;7262;48.764;9.166;2023-10-08T15:05:03;29.20;82.80
14357;DHT22;7262;48.764;9.166;2023-10-08T15:07:32;28.70;82.90
14357;DHT22;7262;48.764;9.166;2023-10-08T15:10:00;27.90;84.30
14357;DHT22;7262;48.764;9.166;2023-10-08T15:12:27;27.80;85.70
14357;DHT22;7262;48.764;9.166;2023-10-08T15:15:02;27.60;85.80
14357;DHT22;7262;48.764;9.166;2023-10-08T15:17:39;27.30;86.60
14357;DHT22;7262;48.764;9.166;2023-10-08T15:20:20;27.20;86.80
14357;DHT22;7262;48.764;9.166;2023-10-08T15:22:51;27.40;87.50
14357;DHT22;7262;48.764;9.166;2023-10-08T15:25:24;27.70;86.80
14357;DHT22;7262;48.764;9.166;2023-10-08T15:27:50;27.80;86.00
14357;DHT22;7262;48.764;9.166;2023-10-08T15:30:19;27.90;86.50
14357;DHT22;7262;48.764;9.166;2023-10-08T15:32:48;27.50;87.60
14357;DHT22;7262;48.764;9.166;2023-10-08T15:35:17;27.30;88.40
14357;DHT22;7262;48.764;9.166;2023-10-08T15:37:45;27.10;89.50
14357;DHT22;7262;48.764;9.166;2023-10-08T15:40:12;27.10;89.50
14357;DHT22;7262;48.764;9.166;2023-10-08T15:42:46;26.50;90.60
14357;DHT22;7262;48.764;9.166;2023-10-08T15:47:50;25.50;92.10
14357;DHT22;7262;48.764;9.166;2023-10-08T15:52:56;25.00;93.10
14357;DHT22;7262;48.764;9.166;2023-10-08T16:00:53;24.70;94.10
14357;DHT22;7262;48.764;9.166;2023-10-08T16:03:38;24.50;94.60
14357;DHT22;7262;48.764;9.166;2023-10-08T16:06:10;24.30;95.50
14357;DHT22;7262;48.764;9.166;2023-10-08T16:11:24;24.10;95.90
14357;DHT22;7262;48.764;9.166;2023-10-08T16:14:12;24.00;96.10
14357;DHT22;7262;48.764;9.166;2023-10-08T16:54:46;21.30;99.90
14357;DHT22;7262;48.764;9.166;2023-10-08T18:14:12;17.70;99.90
14357;DHT22;7262;48.764;9.166;2023-10-08T18:16:41;17.70;99.90
14357;DHT22;7262;48.764;9.166;2023-10-08T18:26:55;17.40;99.90
14357;DHT22;7262;48.764;9.166;2023-10-08T18:29:23;17.40;99.90
14357;DHT22;7262;48.764;9.166;2023-10-08T18:31:52;17.30;99.90
14357;DHT22;7262;48.764;9.166;2023-10-08T18:34:19;17.20;99.90
14357;DHT22;7262;48.764;9.166;2023-10-08T18:36:49;17.20;99.90
14357;DHT22;7262;48.764;9.166;2023-10-08T18:39:16;17.10;99.90
14357;DHT22;7262;48.764;9.166;2023-10-08T18:41:50;17.10;99.90
14357;DHT22;7262;48.764;9.166;2023-10-08T18:44:18;17.10;99.90
14357;DHT22;7262;48.764;9.166;2023-10-08T18:46:47;17.00;99.90
14357;DHT22;7262;48.764;9.166;2023-10-08T18:49:18;16.90;99.90
14357;DHT22;7262;48.764;9.166;2023-10-08T18:51:47;16.80;99.90
14357;DHT22;7262;48.764;9.166;2023-10-08T18:54:18;16.80;99.90
14357;DHT22;7262;48.764;9.166;2023-10-08T18:57:15;16.70;99.90
14357;DHT22;7262;48.764;9.166;2023-10-08T18:59:54;16.60;99.90
14357;DHT22;7262;48.764;9.166;2023-10-08T19:02:31;16.50;99.90
14357;DHT22;7262;48.764;9.166;2023-10-08T19:05:12;16.50;99.90
14357;DHT22;7262;48.764;9.166;2023-10-08T19:07:52;16.50;99.90
14357;DHT22;7262;48.764;9.166;2023-10-08T19:10:34;16.50;99.90
14357;DHT22;7262;48.764;9.166;2023-10-08T19:13:17;16.40;99.90
14357;DHT22;7262;48.764;9.166;2023-10-08T19:15:51;16.30;99.90
14357;DHT22;7262;48.764;9.166;2023-10-08T19:28:41;16.10;99.90
14357;DHT22;7262;48.764;9.166;2023-10-08T19:57:09;15.70;99.90
14357;DHT22;7262;48.764;9.166;2023-10-08T20:21:47;15.20;99.90
14357;DHT22;7262;48.764;9.166;2023-10-08T20:24:14;15.10;99.90
14357;DHT22;7262;48.764;9.166;2023-10-08T20:26:56;15.20;99.90
14357;DHT22;7262;48.764;9.166;2023-10-08T20:34:38;15.00;99.90
14357;DHT22;7262;48.764;9.166;2023-10-08T20:37:09;14.90;99.90
14357;DHT22;7262;48.764;9.166;2023-10-08T20:39:43;14.90;99.90
14357;DHT22;7262;48.764;9.166;2023-10-08T20:42:10;14.80;99.90
14357;DHT22;7262;48.764;9.166;2023-10-08T20:47:17;14.80;99.90
14357;DHT22;7262;48.764;9.166;2023-10-08T20:49:44;14.70;99.90
14357;DHT22;7262;48.764;9.166;2023-10-08T20:57:51;14.70;99.90
14357;DHT22;7262;48.764;9.166;2023-10-08T21:03:02;14.50;99.90
14357;DHT22;7262;48.764;9.166;2023-10-08T21:05:31;14.50;99.90
14357;DHT22;7262;48.764;9.166;2023-10-08T21:08:01;14.40;99.90
14357;DHT22;7262;48.764;9.166;2023-10-08T21:10:42;14.40;99.90
14357;DHT22;7262;48.764;9.166;2023-10-08T21:13:20;14.40;99.90
14357;DHT22;7262;48.764;9.166;2023-10-08T21:15:47;14.40;99.90
14357;DHT22;7262;48.764;9.166;2023-10-08T21:18:29;14.40;99.90
14357;DHT22;7262;48.764;9.166;2023-10-08T21:20:59;14.50;99.90
14357;DHT22;7262;48.764;9.166;2023-10-08T21:23:40;14.40;99.90
14357;DHT22;7262;48.764;9.166;2023-10-08T21:44:22;14.20;99.90
14357;DHT22;7262;48.764;9.166;2023-10-08T21:46:50;14.30;99.90
14357;DHT22;7262;48.764;9.166;2023-10-08T21:49:17;14.20;99.90
14357;DHT22;7262;48.764;9.166;2023-10-08T21:51:44;14.30;99.90
14357;DHT22;7262;48.764;9.166;2023-10-08T21:54:10;14.10;99.90
14357;DHT22;7262;48.764;9.166;2023-10-08T21:56:40;14.10;99.90
14357;DHT22;7262;48.764;9.166;2023-10-08T21:59:29;14.20;99.90
14357;DHT22;7262;48.764;9.166;2023-10-08T22:02:08;14.00;99.90
14357;DHT22;7262;48.764;9.166;2023-10-08T22:04:34;14.10;99.90
14357;DHT22;7262;48.764;9.166;2023-10-08T22:07:03;13.90;99.90
14357;DHT22;7262;48.764;9.166;2023-10-08T22:09:31;13.90;99.90
14357;DHT22;7262;48.764;9.166;2023-10-08T22:11:59;13.90;99.90
14357;DHT22;7262;48.764;9.166;2023-10-08T22:14:28;13.90;99.90
14357;DHT22;7262;48.764;9.166;2023-10-08T22:16:58;14.00;99.90
14357;DHT22;7262;48.764;9.166;2023-10-08T22:19:26;13.90;99.90
14357;DHT22;7262;48.764;9.166;2023-10-08T22:21:54;14.00;99.90
14357;DHT22;7262;48.764;9.166;2023-10-08T22:24:22;13.90;99.90
14357;DHT22;7262;48.764;9.166;2023-10-08T22:26:49;13.90;99.90
14357;DHT22;7262;48.764;9.166;2023-10-08T22:29:20;13.80;99.90
14357;DHT22;7262;48.764;9.166;2023-10-08T22:31:47;13.80;99.90